sensor_id;sensor_type;location;lat;lon;timestamp;pressure;altitude;pressure_sealevel;temperature;humidity
11172;BME280;5642;50.830;12.082;2023-05-21T00:19:02;99515.75;;;16.37;43.54
11172;BME280;5642;50.830;12.082;2023-05-21T00:21:29;99516.50;;;16.39;43.67
11172;BME280;5642;50.830;12.082;2023-05-21T00:23:56;99517.25;;;16.41;43.43
11172;BME280;5642;50.830;12.082;2023-05-21T00:26:24;99513.09;;;16.37;43.60
11172;BME280;5642;50.830;12.082;2023-05-21T00:28:51;99503.84;;;16.29;43.38
11172;BME280;5642;50.830;12.082;2023-05-21T00:31:17;99499.34;;;16.31;43.59
11172;BME280;5642;50.830;12.082;2023-05-21T00:33:45;99503.63;;;16.33;43.60
11172;BME280;5642;50.830;12.082;2023-05-21T00:36:12;99512.16;;;16.38;43.71
11172;BME280;5642;50.830;12.082;2023-05-21T00:38:40;99503.53;;;16.35;43.66
11172;BME280;5642;50.830;12.082;2023-05-21T00:41:11;99509.78;;;16.34;43.71
11172;BME280;5642;50.830;12.082;2023-05-21T00:43:38;99503.00;;;16.28;43.82
11172;BME280;5642;50.830;12.082;2023-05-21T00:46:10;99508.91;;;16.33;43.80
11172;BME280;5642;50.830;12.082;2023-05-21T00:48:37;99495.94;;;16.29;43.81
11172;BME280;5642;50.830;12.082;2023-05-21T00:51:05;99503.53;;;16.35;43.80
11172;BME280;5642;50.830;12.082;2023-05-21T00:53:34;99506.50;;;16.29;43.84
11172;BME280;5642;50.830;12.082;2023-05-21T00:56:01;99508.22;;;16.30;43.91
11172;BME280;5642;50.830;12.082;2023-05-21T00:58:28;99505.13;;;16.22;43.87
11172;BME280;5642;50.830;12.082;2023-05-21T01:01:11;99509.66;;;16.20;43.93
11172;BME280;5642;50.830;12.082;2023-05-21T01:03:39;99515.53;;;16.25;43.92
11172;BME280;5642;50.830;12.082;2023-05-21T01:06:07;99499.91;;;16.20;43.88
11172;BME280;5642;50.830;12.082;2023-05-21T01:08:34;99500.88;;;16.19;44.08
11172;BME280;5642;50.830;12.082;2023-05-21T01:11:05;99501.03;;;16.16;44.13
11172;BME280;5642;50.830;12.082;2023-05-21T01:13:36;99497.69;;;16.13;44.25
11172;BME280;5642;50.830;12.082;2023-05-21T01:16:04;99497.00;;;16.09;44.19
11172;BME280;5642;50.830;12.082;2023-05-21T02:20:46;99478.91;;;15.50;44.94
11172;BME280;5642;50.830;12.082;2023-05-21T02:23:13;99461.50;;;15.46;44.98
11172;BME280;5642;50.830;12.082;2023-05-21T02:25:40;99469.97;;;15.52;44.90
11172;BME280;5642;50.830;12.082;2023-05-21T02:28:05;99471.72;;;15.53;44.80
11172;BME280;5642;50.830;12.082;2023-05-21T02:30:33;99466.28;;;15.56;44.99
11172;BME280;5642;50.830;12.082;2023-05-21T02:33:01;99455.88;;;15.53;45.07
11172;BME280;5642;50.830;12.082;2023-05-21T02:35:28;99459.31;;;15.55;45.00
11172;BME280;5642;50.830;12.082;2023-05-21T02:37:55;99450.72;;;15.50;44.91
11172;BME280;5642;50.830;12.082;2023-05-21T02:40:24;99444.50;;;15.51;44.94
11172;BME280;5642;50.830;12.082;2023-05-21T02:42:51;99462.63;;;15.59;44.92
11172;BME280;5642;50.830;12.082;2023-05-21T02:45:18;99458.22;;;15.59;44.94
11172;BME280;5642;50.830;12.082;2023-05-21T02:47:46;99411.88;;;15.35;45.06
11172;BME280;5642;50.830;12.082;2023-05-21T02:50:13;99453.06;;;15.56;44.88
11172;BME280;5642;50.830;12.082;2023-05-21T02:52:40;99456.56;;;15.57;45.01
11172;BME280;5642;50.830;12.082;2023-05-21T02:55:07;99439.47;;;15.47;45.02
11172;BME280;5642;50.830;12.082;2023-05-21T02:57:34;99451.56;;;15.51;45.07
11172;BME280;5642;50.830;12.082;2023-05-21T03:00:01;99468.91;;;15.56;45.03
11172;BME280;5642;50.830;12.082;2023-05-21T03:02:29;99459.50;;;15.51;45.27
11172;BME280;5642;50.830;12.082;2023-05-21T03:04:57;99440.78;;;15.38;45.25
11172;BME280;5642;50.830;12.082;2023-05-21T03:07:25;99465.59;;;15.53;45.30
11172;BME280;5642;50.830;12.082;2023-05-21T03:09:55;99457.03;;;15.48;45.21
11172;BME280;5642;50.830;12.082;2023-05-21T03:12:21;99464.09;;;15.47;45.36
11172;BME280;5642;50.830;12.082;2023-05-21T03:14:48;99445.06;;;15.41;45.32
11172;BME280;5642;50.830;12.082;2023-05-21T03:17:27;99451.81;;;15.46;45.42
11172;BME280;5642;50.830;12.082;2023-05-21T04:21:32;99495.94;;;15.79;45.15
11172;BME280;5642;50.830;12.082;2023-05-21T04:23:59;99481.41;;;15.87;44.97
11172;BME280;5642;50.830;12.082;2023-05-21T04:26:27;99474.94;;;15.93;44.82
11172;BME280;5642;50.830;12.082;2023-05-21T04:28:55;99495.28;;;16.08;44.85
11172;BME280;5642;50.830;12.082;2023-05-21T04:31:25;99466.63;;;16.00;45.03
11172;BME280;5642;50.830;12.082;2023-05-21T04:33:52;99488.25;;;16.24;45.13
11172;BME280;5642;50.830;12.082;2023-05-21T04:36:18;99489.56;;;16.33;44.87
11172;BME280;5642;50.830;12.082;2023-05-21T04:38:45;99476.50;;;16.30;44.94
11172;BME280;5642;50.830;12.082;2023-05-21T04:41:13;99478.56;;;16.40;45.01
11172;BME280;5642;50.830;12.082;2023-05-21T04:43:41;99485.66;;;16.56;44.88
11172;BME280;5642;50.830;12.082;2023-05-21T04:46:08;99487.28;;;16.58;44.98
11172;BME280;5642;50.830;12.082;2023-05-21T04:48:34;99483.00;;;16.56;44.69
11172;BME280;5642;50.830;12.082;2023-05-21T04:51:01;99469.25;;;16.49;44.88
11172;BME280;5642;50.830;12.082;2023-05-21T04:53:30;99484.56;;;16.60;44.84
11172;BME280;5642;50.830;12.082;2023-05-21T04:55:56;99492.88;;;16.69;44.95
11172;BME280;5642;50.830;12.082;2023-05-21T04:58:24;99486.56;;;16.72;44.94
11172;BME280;5642;50.830;12.082;2023-05-21T05:00:51;99495.19;;;16.75;44.87
11172;BME280;5642;50.830;12.082;2023-05-21T05:03:18;99454.38;;;16.64;44.99
11172;BME280;5642;50.830;12.082;2023-05-21T05:05:45;99476.84;;;16.88;44.82
11172;BME280;5642;50.830;12.082;2023-05-21T05:08:10;99481.84;;;16.93;44.92
11172;BME280;5642;50.830;12.082;2023-05-21T05:10:37;99466.59;;;16.98;44.68
11172;BME280;5642;50.830;12.082;2023-05-21T05:13:03;99469.56;;;16.92;44.78
11172;BME280;5642;50.830;12.082;2023-05-21T05:15:29;99485.00;;;17.15;44.57
11172;BME280;5642;50.830;12.082;2023-05-21T05:17:55;99484.41;;;17.26;44.60
11172;BME280;5642;50.830;12.082;2023-05-21T07:23:30;99384.78;;;41.17;30.10
11172;BME280;5642;50.830;12.082;2023-05-21T07:25:56;99386.88;;;41.43;29.99
11172;BME280;5642;50.830;12.082;2023-05-21T07:28:23;99386.25;;;41.87;29.36
11172;BME280;5642;50.830;12.082;2023-05-21T07:30:49;99383.78;;;42.40;29.35
11172;BME280;5642;50.830;12.082;2023-05-21T07:33:17;99384.91;;;42.88;29.16
11172;BME280;5642;50.830;12.082;2023-05-21T07:35:45;99369.88;;;43.27;28.70
11172;BME280;5642;50.830;12.082;2023-05-21T07:38:11;99374.03;;;43.57;28.49
11172;BME280;5642;50.830;12.082;2023-05-21T07:40:37;99366.91;;;43.61;28.50
11172;BME280;5642;50.830;12.082;2023-05-21T07:43:04;99363.94;;;43.72;28.39
11172;BME280;5642;50.830;12.082;2023-05-21T07:45:30;99379.16;;;43.80;28.21
11172;BME280;5642;50.830;12.082;2023-05-21T07:47:56;99373.97;;;43.84;28.14
11172;BME280;5642;50.830;12.082;2023-05-21T07:50:23;99382.00;;;43.90;28.07
11172;BME280;5642;50.830;12.082;2023-05-21T07:52:49;99376.13;;;43.77;28.14
11172;BME280;5642;50.830;12.082;2023-05-21T07:55:15;99368.25;;;43.58;28.09
11172;BME280;5642;50.830;12.082;2023-05-21T07:57:41;99364.78;;;42.87;28.59
11172;BME280;5642;50.830;12.082;2023-05-21T08:00:08;99362.41;;;42.31;28.87
11172;BME280;5642;50.830;12.082;2023-05-21T08:02:35;99363.22;;;42.09;28.96
11172;BME280;5642;50.830;12.082;2023-05-21T08:05:01;99365.66;;;42.06;28.79
11172;BME280;5642;50.830;12.082;2023-05-21T08:07:28;99364.19;;;42.20;28.73
11172;BME280;5642;50.830;12.082;2023-05-21T08:09:55;99360.66;;;42.41;28.46
11172;BME280;5642;50.830;12.082;2023-05-21T08:12:21;99355.09;;;42.85;27.76
11172;BME280;5642;50.830;12.082;2023-05-21T08:14:48;99356.03;;;43.17;27.92
11172;BME280;5642;50.830;12.082;2023-05-21T08:17:14;99346.22;;;43.31;27.37
11172;BME280;5642;50.830;12.082;2023-05-21T08:19:41;99356.00;;;43.81;27.17
11172;BME280;5642;50.830;12.082;2023-05-21T12:24:56;99267.34;;;31.11;23.93
11172;BME280;5642;50.830;12.082;2023-05-21T12:27:23;99246.38;;;31.05;23.87
11172;BME280;5642;50.830;12.082;2023-05-21T12:29:50;99260.91;;;31.12;23.91
11172;BME280;5642;50.830;12.082;2023-05-21T12:32:18;99241.69;;;30.99;23.71
11172;BME280;5642;50.830;12.082;2023-05-21T12:37:15;99269.91;;;31.04;23.61
11172;BME280;5642;50.830;12.082;2023-05-21T12:39:46;99258.78;;;30.99;23.87
11172;BME280;5642;50.830;12.082;2023-05-21T12:42:32;99256.25;;;30.98;23.78
11172;BME280;5642;50.830;12.082;2023-05-21T12:45:07;99243.00;;;30.88;23.84
11172;BME280;5642;50.830;12.082;2023-05-21T12:47:35;99255.78;;;30.94;23.86
11172;BME280;5642;50.830;12.082;2023-05-21T12:50:03;99249.34;;;30.95;23.86
11172;BME280;5642;50.830;12.082;2023-05-21T12:52:32;99258.25;;;31.04;23.95
11172;BME280;5642;50.830;12.082;2023-05-21T12:55:00;99252.66;;;31.05;23.78
11172;BME280;5642;50.830;12.082;2023-05-21T12:57:34;99250.84;;;30.98;23.92
11172;BME280;5642;50.830;12.082;2023-05-21T13:00:05;99264.69;;;31.03;23.70
11172;BME280;5642;50.830;12.082;2023-05-21T13:02:41;99265.59;;;30.95;23.94
11172;BME280;5642;50.830;12.082;2023-05-21T13:05:15;99250.09;;;30.89;23.54
11172;BME280;5642;50.830;12.082;2023-05-21T13:07:45;99230.44;;;30.72;24.03
11172;BME280;5642;50.830;12.082;2023-05-21T13:10:16;99188.38;;;30.47;23.94
11172;BME280;5642;50.830;12.082;2023-05-21T13:12:42;99249.88;;;30.76;23.70
11172;BME280;5642;50.830;12.082;2023-05-21T13:15:09;99239.75;;;30.70;24.15
11172;BME280;5642;50.830;12.082;2023-05-21T13:17:35;99202.88;;;30.54;24.00
11172;BME280;5642;50.830;12.082;2023-05-21T13:20:12;99236.69;;;30.73;24.09
11172;BME280;5642;50.830;12.082;2023-05-21T13:22:44;99234.34;;;30.70;23.97
11172;BME280;5642;50.830;12.082;2023-05-21T13:25:18;99237.25;;;30.68;24.09
11172;BME280;5642;50.830;12.082;2023-05-21T13:27:50;99199.19;;;30.47;23.89
11172;BME280;5642;50.830;12.082;2023-05-21T13:30:17;99236.88;;;30.71;23.84
11172;BME280;5642;50.830;12.082;2023-05-21T13:32:44;99231.00;;;30.68;24.32
11172;BME280;5642;50.830;12.082;2023-05-21T13:35:10;99222.69;;;30.69;23.88
11172;BME280;5642;50.830;12.082;2023-05-21T13:37:48;99232.41;;;30.79;23.93
11172;BME280;5642;50.830;12.082;2023-05-21T13:40:14;99229.88;;;30.77;24.17
11172;BME280;5642;50.830;12.082;2023-05-21T13:42:46;99227.38;;;30.76;23.81
11172;BME280;5642;50.830;12.082;2023-05-21T13:45:17;99227.06;;;30.70;23.86
11172;BME280;5642;50.830;12.082;2023-05-21T13:47:45;99191.59;;;30.51;24.06
11172;BME280;5642;50.830;12.082;2023-05-21T13:50:11;99227.44;;;30.67;23.76
11172;BME280;5642;50.830;12.082;2023-05-21T13:52:41;99217.38;;;30.61;23.78
11172;BME280;5642;50.830;12.082;2023-05-21T13:55:07;99234.84;;;30.73;23.92
11172;BME280;5642;50.830;12.082;2023-05-21T13:57:34;99232.78;;;30.76;24.21
11172;BME280;5642;50.830;12.082;2023-05-21T14:00:00;99236.97;;;30.78;24.07
11172;BME280;5642;50.830;12.082;2023-05-21T14:02:28;99196.38;;;30.63;23.91
11172;BME280;5642;50.830;12.082;2023-05-21T14:04:55;99199.06;;;30.63;24.11
11172;BME280;5642;50.830;12.082;2023-05-21T14:07:21;99197.22;;;30.64;24.26
11172;BME280;5642;50.830;12.082;2023-05-21T14:09:48;99234.59;;;30.83;24.04
11172;BME280;5642;50.830;12.082;2023-05-21T14:12:15;99229.03;;;30.77;24.05
11172;BME280;5642;50.830;12.082;2023-05-21T14:14:46;99215.78;;;30.67;23.92
11172;BME280;5642;50.830;12.082;2023-05-21T14:17:14;99220.19;;;30.68;24.17
11172;BME280;5642;50.830;12.082;2023-05-21T14:19:40;99209.94;;;30.55;23.97
11172;BME280;5642;50.830;12.082;2023-05-21T14:22:09;99230.34;;;30.66;23.85
11172;BME280;5642;50.830;12.082;2023-05-21T14:24:35;99202.53;;;30.49;24.04
11172;BME280;5642;50.830;12.082;2023-05-21T14:27:01;99227.84;;;30.56;23.90
11172;BME280;5642;50.830;12.082;2023-05-21T14:29:28;99229.06;;;30.54;24.07
11172;BME280;5642;50.830;12.082;2023-05-21T14:31:54;99225.38;;;30.47;24.21
11172;BME280;5642;50.830;12.082;2023-05-21T14:34:21;99201.16;;;30.30;24.34
11172;BME280;5642;50.830;12.082;2023-05-21T14:36:47;99224.03;;;30.43;23.95
11172;BME280;5642;50.830;12.082;2023-05-21T14:39:13;99202.56;;;30.26;24.30
11172;BME280;5642;50.830;12.082;2023-05-21T14:41:39;99201.22;;;30.22;24.31
11172;BME280;5642;50.830;12.082;2023-05-21T14:44:05;99224.81;;;30.28;24.28
11172;BME280;5642;50.830;12.082;2023-05-21T14:46:32;99194.72;;;30.09;24.11
11172;BME280;5642;50.830;12.082;2023-05-21T14:48:58;99215.38;;;30.24;24.40
11172;BME280;5642;50.830;12.082;2023-05-21T14:51:27;99192.72;;;30.03;24.21
11172;BME280;5642;50.830;12.082;2023-05-21T14:53:53;99220.13;;;30.22;24.60
11172;BME280;5642;50.830;12.082;2023-05-21T14:56:23;99222.66;;;30.24;24.52
11172;BME280;5642;50.830;12.082;2023-05-21T14:58:52;99215.91;;;30.20;24.21
11172;BME280;5642;50.830;12.082;2023-05-21T15:01:18;99194.72;;;30.09;24.34
11172;BME280;5642;50.830;12.082;2023-05-21T15:03:54;99216.94;;;30.19;24.42
11172;BME280;5642;50.830;12.082;2023-05-21T15:06:23;99213.44;;;30.10;24.36
11172;BME280;5642;50.830;12.082;2023-05-21T15:08:50;99210.03;;;30.16;24.10
11172;BME280;5642;50.830;12.082;2023-05-21T15:11:16;99207.38;;;30.08;24.17
11172;BME280;5642;50.830;12.082;2023-05-21T15:13:44;99194.75;;;30.01;24.64
11172;BME280;5642;50.830;12.082;2023-05-21T15:16:12;99204.69;;;30.08;24.32
11172;BME280;5642;50.830;12.082;2023-05-21T15:18:39;99198.59;;;30.06;24.23
11172;BME280;5642;50.830;12.082;2023-05-21T15:21:07;99217.13;;;30.17;24.36
11172;BME280;5642;50.830;12.082;2023-05-21T15:23:35;99193.19;;;30.06;24.43
11172;BME280;5642;50.830;12.082;2023-05-21T15:26:01;99199.56;;;30.13;24.42
11172;BME280;5642;50.830;12.082;2023-05-21T15:28:31;99209.69;;;30.19;24.54
11172;BME280;5642;50.830;12.082;2023-05-21T15:30:57;99187.16;;;30.04;24.61
11172;BME280;5642;50.830;12.082;2023-05-21T15:33:23;99209.50;;;30.21;24.62
11172;BME280;5642;50.830;12.082;2023-05-21T15:35:49;99198.56;;;30.14;24.44
11172;BME280;5642;50.830;12.082;2023-05-21T15:38:17;99194.25;;;30.05;24.69
11172;BME280;5642;50.830;12.082;2023-05-21T15:40:44;99203.13;;;30.14;24.27
11172;BME280;5642;50.830;12.082;2023-05-21T15:43:11;99208.84;;;30.19;24.73
11172;BME280;5642;50.830;12.082;2023-05-21T15:45:39;99202.41;;;30.20;24.91
11172;BME280;5642;50.830;12.082;2023-05-21T15:48:06;99202.28;;;30.13;24.62
11172;BME280;5642;50.830;12.082;2023-05-21T15:50:33;99202.34;;;30.05;24.86
11172;BME280;5642;50.830;12.082;2023-05-21T15:53:01;99203.84;;;30.08;24.67
11172;BME280;5642;50.830;12.082;2023-05-21T15:55:31;99201.69;;;30.03;24.80
11172;BME280;5642;50.830;12.082;2023-05-21T15:57:57;99185.81;;;29.92;24.71
11172;BME280;5642;50.830;12.082;2023-05-21T16:00:23;99153.41;;;29.69;24.90
11172;BME280;5642;50.830;12.082;2023-05-21T16:02:49;99183.66;;;29.87;24.99
11172;BME280;5642;50.830;12.082;2023-05-21T16:05:16;99197.16;;;29.95;24.80
11172;BME280;5642;50.830;12.082;2023-05-21T16:07:42;99187.03;;;29.89;25.08
11172;BME280;5642;50.830;12.082;2023-05-21T16:10:09;99181.50;;;29.83;25.10
11172;BME280;5642;50.830;12.082;2023-05-21T16:12:35;99190.06;;;29.86;24.98
11172;BME280;5642;50.830;12.082;2023-05-21T16:15:01;99195.00;;;29.83;25.18
11172;BME280;5642;50.830;12.082;2023-05-21T16:17:28;99199.91;;;29.79;25.22
11172;BME280;5642;50.830;12.082;2023-05-21T16:19:54;99190.66;;;29.74;25.32
11172;BME280;5642;50.830;12.082;2023-05-21T16:22:20;99182.41;;;29.67;25.26
11172;BME280;5642;50.830;12.082;2023-05-21T16:24:48;99194.94;;;29.60;25.49
11172;BME280;5642;50.830;12.082;2023-05-21T16:27:14;99167.00;;;29.29;25.96
11172;BME280;5642;50.830;12.082;2023-05-21T16:29:40;99203.09;;;29.36;25.85
11172;BME280;5642;50.830;12.082;2023-05-21T16:32:06;99203.13;;;29.19;26.36
11172;BME280;5642;50.830;12.082;2023-05-21T16:34:33;99193.34;;;29.10;26.52
11172;BME280;5642;50.830;12.082;2023-05-21T16:36:59;99190.50;;;28.96;26.07
11172;BME280;5642;50.830;12.082;2023-05-21T16:39:25;99179.56;;;28.81;26.37
11172;BME280;5642;50.830;12.082;2023-05-21T16:41:52;99198.25;;;28.74;26.42
11172;BME280;5642;50.830;12.082;2023-05-21T16:44:20;99183.06;;;28.65;26.71
11172;BME280;5642;50.830;12.082;2023-05-21T16:46:46;99142.66;;;28.33;26.69
11172;BME280;5642;50.830;12.082;2023-05-21T16:49:12;99188.81;;;28.54;26.82
11172;BME280;5642;50.830;12.082;2023-05-21T16:51:38;99186.13;;;28.46;26.66
11172;BME280;5642;50.830;12.082;2023-05-21T16:54:05;99149.06;;;28.24;26.68
11172;BME280;5642;50.830;12.082;2023-05-21T16:56:31;99160.66;;;28.24;26.91
11172;BME280;5642;50.830;12.082;2023-05-21T16:58:57;99186.25;;;28.36;27.06
11172;BME280;5642;50.830;12.082;2023-05-21T17:01:23;99172.13;;;28.18;27.07
11172;BME280;5642;50.830;12.082;2023-05-21T17:03:49;99170.38;;;28.09;27.37
11172;BME280;5642;50.830;12.082;2023-05-21T17:06:15;99189.56;;;28.14;27.12
11172;BME280;5642;50.830;12.082;2023-05-21T17:08:41;99195.59;;;28.08;27.23
11172;BME280;5642;50.830;12.082;2023-05-21T17:11:08;99194.56;;;28.01;27.37
11172;BME280;5642;50.830;12.082;2023-05-21T17:13:41;99190.50;;;27.89;27.60
11172;BME280;5642;50.830;12.082;2023-05-21T17:16:07;99195.38;;;27.85;27.58
11172;BME280;5642;50.830;12.082;2023-05-21T17:18:33;99168.03;;;27.64;28.08
11172;BME280;5642;50.830;12.082;2023-05-21T17:20:59;99184.00;;;27.57;28.14
11172;BME280;5642;50.830;12.082;2023-05-21T17:23:27;99195.78;;;27.56;28.07
11172;BME280;5642;50.830;12.082;2023-05-21T17:25:53;99189.75;;;27.37;28.01
11172;BME280;5642;50.830;12.082;2023-05-21T17:28:19;99205.59;;;27.40;28.20
11172;BME280;5642;50.830;12.082;2023-05-21T17:30:45;99179.38;;;27.16;28.06
11172;BME280;5642;50.830;12.082;2023-05-21T17:33:13;99202.63;;;27.25;28.38
11172;BME280;5642;50.830;12.082;2023-05-21T17:35:40;99194.31;;;27.10;28.48
11172;BME280;5642;50.830;12.082;2023-05-21T17:38:06;99216.81;;;27.09;28.37
11172;BME280;5642;50.830;12.082;2023-05-21T17:40:33;99210.72;;;26.99;28.55
11172;BME280;5642;50.830;12.082;2023-05-21T17:42:58;99197.47;;;26.88;28.75
11172;BME280;5642;50.830;12.082;2023-05-21T17:45:25;99209.09;;;26.88;28.51
11172;BME280;5642;50.830;12.082;2023-05-21T17:47:51;99175.81;;;26.64;28.67
11172;BME280;5642;50.830;12.082;2023-05-21T17:50:20;99217.22;;;26.79;29.09
11172;BME280;5642;50.830;12.082;2023-05-21T17:52:46;99218.03;;;26.71;29.01
11172;BME280;5642;50.830;12.082;2023-05-21T17:55:12;99216.28;;;26.62;29.02
11172;BME280;5642;50.830;12.082;2023-05-21T17:57:39;99230.00;;;26.59;29.09
11172;BME280;5642;50.830;12.082;2023-05-21T18:00:06;99223.56;;;26.52;29.31
11172;BME280;5642;50.830;12.082;2023-05-21T18:02:34;99220.78;;;26.44;29.49
11172;BME280;5642;50.830;12.082;2023-05-21T18:05:00;99201.84;;;26.28;29.35
11172;BME280;5642;50.830;12.082;2023-05-21T18:07:26;99221.16;;;26.31;29.54
11172;BME280;5642;50.830;12.082;2023-05-21T18:09:52;99206.72;;;26.15;29.47
11172;BME280;5642;50.830;12.082;2023-05-21T18:12:18;99215.78;;;26.13;29.48
11172;BME280;5642;50.830;12.082;2023-05-21T18:14:44;99201.69;;;26.02;29.60
11172;BME280;5642;50.830;12.082;2023-05-21T18:17:10;99186.97;;;25.88;29.63
11172;BME280;5642;50.830;12.082;2023-05-21T18:19:38;99191.94;;;25.83;29.72
11172;BME280;5642;50.830;12.082;2023-05-21T18:22:04;99200.13;;;25.82;29.97
11172;BME280;5642;50.830;12.082;2023-05-21T18:24:30;99220.31;;;25.86;30.15
11172;BME280;5642;50.830;12.082;2023-05-21T19:25:34;99275.72;;;24.04;31.43
11172;BME280;5642;50.830;12.082;2023-05-21T19:28:00;99275.31;;;23.99;31.60
11172;BME280;5642;50.830;12.082;2023-05-21T19:30:27;99264.19;;;23.94;32.00
11172;BME280;5642;50.830;12.082;2023-05-21T19:32:53;99245.97;;;23.78;31.75
11172;BME280;5642;50.830;12.082;2023-05-21T19:35:19;99271.75;;;23.89;31.69
11172;BME280;5642;50.830;12.082;2023-05-21T19:37:46;99271.13;;;23.75;31.79
11172;BME280;5642;50.830;12.082;2023-05-21T19:40:14;99272.84;;;23.76;32.09
11172;BME280;5642;50.830;12.082;2023-05-21T19:42:42;99233.66;;;23.45;31.88
11172;BME280;5642;50.830;12.082;2023-05-21T19:45:08;99247.13;;;23.55;32.10
11172;BME280;5642;50.830;12.082;2023-05-21T19:47:36;99245.50;;;23.42;31.94
11172;BME280;5642;50.830;12.082;2023-05-21T19:50:05;99236.19;;;23.37;32.21
11172;BME280;5642;50.830;12.082;2023-05-21T19:52:31;99265.91;;;23.43;32.19
11172;BME280;5642;50.830;12.082;2023-05-21T19:54:57;99251.63;;;23.33;32.14
11172;BME280;5642;50.830;12.082;2023-05-21T19:57:30;99267.25;;;23.38;32.33
11172;BME280;5642;50.830;12.082;2023-05-21T19:59:58;99278.78;;;23.38;32.49
11172;BME280;5642;50.830;12.082;2023-05-21T20:02:24;99290.88;;;23.33;32.44
11172;BME280;5642;50.830;12.082;2023-05-21T20:04:51;99282.41;;;23.28;32.39
11172;BME280;5642;50.830;12.082;2023-05-21T20:07:18;99288.00;;;23.25;32.66
11172;BME280;5642;50.830;12.082;2023-05-21T20:09:50;99285.00;;;23.18;32.90
11172;BME280;5642;50.830;12.082;2023-05-21T20:12:17;99282.88;;;23.12;32.80
11172;BME280;5642;50.830;12.082;2023-05-21T20:14:43;99286.63;;;23.10;32.77
11172;BME280;5642;50.830;12.082;2023-05-21T20:17:11;99268.88;;;22.99;32.61
11172;BME280;5642;50.830;12.082;2023-05-21T20:19:49;99273.69;;;23.05;32.98
11172;BME280;5642;50.830;12.082;2023-05-21T20:22:15;99270.94;;;22.95;32.83
11172;BME280;5642;50.830;12.082;2023-05-21T20:24:42;99291.97;;;23.10;32.87
11172;BME280;5642;50.830;12.082;2023-05-21T20:27:08;99260.66;;;22.91;32.86
11172;BME280;5642;50.830;12.082;2023-05-21T20:29:37;99288.22;;;23.12;32.81
11172;BME280;5642;50.830;12.082;2023-05-21T20:32:03;99297.19;;;23.11;32.97
11172;BME280;5642;50.830;12.082;2023-05-21T20:34:30;99287.63;;;23.09;32.94
11172;BME280;5642;50.830;12.082;2023-05-21T20:36:56;99283.63;;;23.03;32.96
11172;BME280;5642;50.830;12.082;2023-05-21T20:39:25;99259.06;;;22.88;33.10
11172;BME280;5642;50.830;12.082;2023-05-21T20:41:54;99287.88;;;23.06;32.87
11172;BME280;5642;50.830;12.082;2023-05-21T20:44:20;99243.13;;;22.77;33.24
11172;BME280;5642;50.830;12.082;2023-05-21T20:46:50;99277.13;;;22.96;33.08
11172;BME280;5642;50.830;12.082;2023-05-21T20:49:18;99282.34;;;22.97;33.16
11172;BME280;5642;50.830;12.082;2023-05-21T20:51:45;99294.00;;;22.96;33.25
11172;BME280;5642;50.830;12.082;2023-05-21T20:54:11;99295.25;;;22.92;33.18
11172;BME280;5642;50.830;12.082;2023-05-21T20:56:37;99292.13;;;22.87;33.41
11172;BME280;5642;50.830;12.082;2023-05-21T20:59:05;99258.44;;;22.64;33.33
11172;BME280;5642;50.830;12.082;2023-05-21T21:01:32;99289.09;;;22.81;33.27
11172;BME280;5642;50.830;12.082;2023-05-21T21:03:58;99292.03;;;22.78;33.32
11172;BME280;5642;50.830;12.082;2023-05-21T21:06:23;99271.41;;;22.69;33.19
11172;BME280;5642;50.830;12.082;2023-05-21T21:08:53;99271.41;;;22.69;33.57
11172;BME280;5642;50.830;12.082;2023-05-21T21:11:20;99289.84;;;22.72;33.37
11172;BME280;5642;50.830;12.082;2023-05-21T21:13:46;99282.06;;;22.69;33.53
11172;BME280;5642;50.830;12.082;2023-05-21T21:16:12;99292.63;;;22.70;33.72
11172;BME280;5642;50.830;12.082;2023-05-21T21:18:38;99293.16;;;22.64;33.56
11172;BME280;5642;50.830;12.082;2023-05-21T21:21:04;99301.16;;;22.64;33.70
11172;BME280;5642;50.830;12.082;2023-05-21T21:23:30;99282.50;;;22.53;33.93
11172;BME280;5642;50.830;12.082;2023-05-21T21:25:58;99290.66;;;22.51;33.98
11172;BME280;5642;50.830;12.082;2023-05-21T21:28:24;99293.09;;;22.43;34.09
11172;BME280;5642;50.830;12.082;2023-05-21T21:30:50;99269.25;;;22.19;34.12
11172;BME280;5642;50.830;12.082;2023-05-21T21:33:16;99272.53;;;22.12;34.44
11172;BME280;5642;50.830;12.082;2023-05-21T21:35:52;99286.63;;;22.14;34.72
11172;BME280;5642;50.830;12.082;2023-05-21T21:38:18;99291.00;;;22.04;34.64
11172;BME280;5642;50.830;12.082;2023-05-21T21:40:44;99306.41;;;22.00;34.75
11172;BME280;5642;50.830;12.082;2023-05-21T21:43:10;99306.34;;;21.89;34.78
11172;BME280;5642;50.830;12.082;2023-05-21T21:45:36;99290.03;;;21.71;34.57
11172;BME280;5642;50.830;12.082;2023-05-21T21:48:02;99298.13;;;21.70;35.17
11172;BME280;5642;50.830;12.082;2023-05-21T21:50:28;99308.53;;;21.62;35.07
11172;BME280;5642;50.830;12.082;2023-05-21T21:52:54;99279.09;;;21.41;35.34
11172;BME280;5642;50.830;12.082;2023-05-21T21:55:21;99295.09;;;21.41;35.19
11172;BME280;5642;50.830;12.082;2023-05-21T21:57:48;99303.34;;;21.38;35.05
11172;BME280;5642;50.830;12.082;2023-05-21T22:00:14;99307.28;;;21.32;35.39
11172;BME280;5642;50.830;12.082;2023-05-21T22:02:44;99314.06;;;21.25;35.45
11172;BME280;5642;50.830;12.082;2023-05-21T22:05:13;99289.88;;;21.04;35.38
11172;BME280;5642;50.830;12.082;2023-05-21T22:07:43;99291.31;;;20.97;35.40
11172;BME280;5642;50.830;12.082;2023-05-21T22:10:14;99305.16;;;21.02;35.66
11172;BME280;5642;50.830;12.082;2023-05-21T22:12:46;99307.44;;;20.96;35.44
11172;BME280;5642;50.830;12.082;2023-05-21T22:15:20;99310.53;;;20.90;35.70
11172;BME280;5642;50.830;12.082;2023-05-21T23:27:52;99309.91;;;19.01;37.53
11172;BME280;5642;50.830;12.082;2023-05-21T23:30:19;99323.44;;;19.10;37.53
11172;BME280;5642;50.830;12.082;2023-05-21T23:32:49;99318.22;;;19.09;37.61
11172;BME280;5642;50.830;12.082;2023-05-21T23:35:28;99314.06;;;19.05;37.69
11172;BME280;5642;50.830;12.082;2023-05-21T23:37:56;99315.84;;;19.04;37.67
11172;BME280;5642;50.830;12.082;2023-05-21T23:40:23;99315.13;;;19.02;37.80